createdAt,value
2023-01-27T00:00:36.312Z,97769.44
2023-01-27T00:03:03.592Z,97763.25
2023-01-27T00:05:30.148Z,97762.28
2023-01-27T00:07:58.849Z,97764.06
2023-01-27T00:10:26.862Z,97764.28
2023-01-27T00:13:12.129Z,97773.84
2023-01-27T00:15:40.066Z,97773.84
2023-01-27T00:18:07.521Z,97784.22
2023-01-27T00:20:53.642Z,97782.16
2023-01-27T00:23:41.732Z,97762.81
2023-01-27T00:26:11.236Z,97757.22
2023-01-27T00:28:39.624Z,97758.69
2023-01-27T00:31:27.302Z,97768.44
2023-01-27T00:33:56.263Z,97769.28
2023-01-27T00:36:23.128Z,97778.19
2023-01-27T00:38:49.848Z,97779.66
2023-01-27T00:41:19.687Z,97776.25
2023-01-27T00:43:47.989Z,97791.06
2023-01-27T00:46:15.408Z,97766.88
2023-01-27T00:48:41.936Z,97755.97
2023-01-27T00:51:12.444Z,97767.22
2023-01-27T00:53:39.072Z,97782.94
2023-01-27T00:56:06.493Z,97769.03
2023-01-27T00:58:33.211Z,97766.25
2023-01-27T01:01:01.777Z,97770.84
2023-01-27T01:03:32.935Z,97766.47
2023-01-27T01:06:01.477Z,97773.22
2023-01-27T01:08:28.462Z,97776.13
2023-01-27T01:10:55.034Z,97776.44
2023-01-27T01:13:21.685Z,97799.38
2023-01-27T01:15:48.415Z,97781.53
2023-01-27T01:18:16.396Z,97785.47
2023-01-27T01:20:44.901Z,97786.06
2023-01-27T01:23:12.547Z,97772.69
2023-01-27T01:25:39.568Z,97770.00
2023-01-27T01:28:07.564Z,97782.88
2023-01-27T01:30:35.923Z,97769.69
2023-01-27T01:33:02.783Z,97760.66
2023-01-27T01:35:29.400Z,97765.59
2023-01-27T01:37:55.992Z,97764.69
2023-01-27T01:40:25.370Z,97781.53
2023-01-27T01:42:59.790Z,97779.03
2023-01-27T01:45:32.571Z,97784.25
2023-01-27T01:48:02.374Z,97784.66
2023-01-27T01:50:30.306Z,97778.00
2023-01-27T01:52:59.149Z,97777.81
2023-01-27T01:55:25.924Z,97776.84
2023-01-27T01:57:52.558Z,97775.09
2023-01-27T02:00:19.653Z,97786.72
2023-01-27T02:02:48.514Z,97781.72
2023-01-27T02:05:24.778Z,97776.13
2023-01-27T02:08:02.074Z,97785.66
2023-01-27T02:10:28.971Z,97773.00
2023-01-27T02:12:56.212Z,97777.59
2023-01-27T02:15:24.454Z,97776.31
2023-01-27T02:17:51.133Z,97767.50
2023-01-27T02:20:29.701Z,97769.16
2023-01-27T02:23:18.902Z,97770.09
2023-01-27T02:25:56.744Z,97772.59
2023-01-27T02:28:28.048Z,97770.81
2023-01-27T02:30:54.856Z,97772.19
2023-01-27T02:33:21.455Z,97774.13
2023-01-27T02:35:59.292Z,97767.41
2023-01-27T02:38:29.561Z,97762.00
2023-01-27T02:40:59.392Z,97778.94
2023-01-27T02:43:25.913Z,97781.13
2023-01-27T02:45:52.781Z,97772.56
2023-01-27T02:48:19.185Z,97763.34
2023-01-27T02:50:45.764Z,97762.41
2023-01-27T02:53:12.161Z,97766.56
2023-01-27T02:55:38.849Z,97773.00
2023-01-27T02:58:05.300Z,97765.19
2023-01-27T03:00:32.653Z,97759.69
2023-01-27T03:02:59.302Z,97760.53
2023-01-27T03:05:25.971Z,97752.44
2023-01-27T03:07:52.652Z,97757.66
2023-01-27T03:10:19.414Z,97723.94
2023-01-27T03:12:46.116Z,97758.25
2023-01-27T03:15:31.019Z,97748.69
2023-01-27T03:18:15.941Z,97754.22
2023-01-27T03:20:47.575Z,97754.81
2023-01-27T03:23:16.534Z,97752.22
2023-01-27T03:25:44.705Z,97749.53
2023-01-27T03:28:12.315Z,97755.97
2023-01-27T03:30:40.289Z,97751.81
2023-01-27T03:33:07.505Z,97756.38
2023-01-27T03:35:39.009Z,97761.38
2023-01-27T03:40:54.097Z,97722.88
2023-01-27T03:43:39.220Z,97762.09
2023-01-27T03:46:18.947Z,97723.72
2023-01-27T03:48:53.954Z,97747.44
2023-01-27T03:51:23.617Z,97723.34
2023-01-27T03:53:50.888Z,97694.63
2023-01-27T03:56:20.115Z,97747.84
2023-01-27T03:58:48.904Z,97736.31
2023-01-27T04:01:22.782Z,97731.00
2023-01-27T04:04:09.158Z,97738.91
2023-01-27T04:07:00.775Z,97745.25
2023-01-27T04:09:30.371Z,97739.44
2023-01-27T04:12:00.090Z,97746.19
2023-01-27T04:14:38.020Z,97753.66
2023-01-27T04:17:11.667Z,97742.03
2023-01-27T04:19:38.610Z,97728.81
2023-01-27T04:22:06.601Z,97725.63
2023-01-27T04:24:33.591Z,97741.94
2023-01-27T04:27:03.535Z,97735.78
2023-01-27T04:29:32.800Z,97734.16
2023-01-27T04:31:59.542Z,97738.63
2023-01-27T04:34:27.448Z,97736.53
2023-01-27T04:36:54.967Z,97732.28
2023-01-27T04:39:21.669Z,97734.56
2023-01-27T04:41:49.695Z,97733.50
2023-01-27T04:44:16.506Z,97739.22
2023-01-27T04:46:42.961Z,97739.66
2023-01-27T04:49:09.683Z,97741.63
2023-01-27T04:51:36.844Z,97731.81
2023-01-27T04:54:05.591Z,97734.78
2023-01-27T04:56:38.188Z,97720.16
2023-01-27T04:59:07.545Z,97720.09
2023-01-27T05:01:34.352Z,97727.66
2023-01-27T05:04:00.964Z,97737.03
2023-01-27T05:06:27.776Z,97735.38
2023-01-27T05:08:55.138Z,97739.84
2023-01-27T05:11:22.265Z,97749.72
2023-01-27T05:13:48.911Z,97756.59
2023-01-27T05:16:24.192Z,97763.38
2023-01-27T05:18:52.518Z,97769.69
2023-01-27T05:21:21.884Z,97761.69
2023-01-27T05:23:49.707Z,97757.00
2023-01-27T05:26:21.904Z,97767.94
2023-01-27T05:28:49.854Z,97759.72
2023-01-27T05:31:22.553Z,97765.97
2023-01-27T05:33:51.755Z,97764.06
2023-01-27T05:36:21.520Z,97745.72
2023-01-27T05:38:48.595Z,97745.19
2023-01-27T05:41:17.267Z,97762.50
2023-01-27T05:43:45.818Z,97755.94
2023-01-27T05:46:18.030Z,97767.72
2023-01-27T05:48:47.078Z,97765.63
2023-01-27T05:51:15.412Z,97758.19
2023-01-27T05:53:42.972Z,97769.06
2023-01-27T05:56:11.696Z,97773.00
2023-01-27T05:58:38.745Z,97780.50
2023-01-27T06:01:13.112Z,97790.28
2023-01-27T06:03:40.753Z,97794.53
2023-01-27T06:06:09.543Z,97798.63
2023-01-27T06:08:36.779Z,97790.50
2023-01-27T06:11:04.216Z,97793.69
2023-01-27T06:13:31.370Z,97807.16
2023-01-27T06:15:58.120Z,97801.50
2023-01-27T06:18:24.938Z,97799.13
2023-01-27T06:20:51.716Z,97795.69
2023-01-27T06:23:18.474Z,97779.88
2023-01-27T06:25:47.757Z,97785.28
2023-01-27T06:28:28.180Z,97781.63
2023-01-27T06:30:55.257Z,97777.56
2023-01-27T06:33:21.692Z,97789.56
2023-01-27T06:35:48.295Z,97788.94
2023-01-27T06:38:15.712Z,97804.94
2023-01-27T06:40:43.403Z,97808.38
2023-01-27T06:43:17.150Z,97791.94
2023-01-27T06:45:43.817Z,97789.38
2023-01-27T06:48:10.401Z,97780.66
2023-01-27T06:50:37.434Z,97785.44
2023-01-27T06:53:06.551Z,97777.22
2023-01-27T06:55:34.342Z,97782.91
2023-01-27T06:58:02.140Z,97787.88
2023-01-27T07:00:28.855Z,97776.44
2023-01-27T07:02:56.198Z,97786.22
2023-01-27T07:05:22.856Z,97780.94
2023-01-27T07:07:49.480Z,97792.50
2023-01-27T07:10:16.733Z,97791.00
2023-01-27T07:12:43.550Z,97789.13
2023-01-27T07:15:11.221Z,97802.03
2023-01-27T07:17:38.160Z,97811.84
2023-01-27T07:20:06.515Z,97813.59
2023-01-27T07:22:33.078Z,97824.31
2023-01-27T07:24:59.651Z,97817.34
2023-01-27T07:27:26.312Z,97825.94
2023-01-27T07:29:53.082Z,97828.25
2023-01-27T07:32:19.826Z,97830.34
2023-01-27T07:34:46.483Z,97834.97
2023-01-27T07:37:13.816Z,97832.84
2023-01-27T07:39:40.357Z,97843.28
2023-01-27T07:42:08.375Z,97845.38
2023-01-27T07:44:35.065Z,97860.38
2023-01-27T07:47:02.132Z,97851.63
2023-01-27T07:49:28.830Z,97844.41
2023-01-27T07:51:55.390Z,97859.13
2023-01-27T07:54:21.927Z,97876.31
2023-01-27T07:56:48.678Z,97878.06
2023-01-27T07:59:15.318Z,97854.59
2023-01-27T08:01:42.301Z,97859.25
2023-01-27T08:04:08.957Z,97867.19
2023-01-27T08:06:38.084Z,97875.41
2023-01-27T08:09:05.054Z,97880.31
2023-01-27T08:11:31.925Z,97901.59
2023-01-27T08:13:58.393Z,97895.56
2023-01-27T08:16:25.059Z,97881.97
2023-01-27T08:18:52.898Z,97878.44
2023-01-27T08:21:20.200Z,97890.94
2023-01-27T08:23:46.879Z,97888.84
2023-01-27T08:26:14.247Z,97891.75
2023-01-27T08:28:41.514Z,97880.38
2023-01-27T08:31:13.912Z,97889.94
2023-01-27T08:33:42.223Z,97896.09
2023-01-27T08:36:14.849Z,97891.22
2023-01-27T08:38:43.128Z,97899.66
2023-01-27T08:41:16.018Z,97906.22
2023-01-27T08:43:43.572Z,97925.09
2023-01-27T08:46:10.726Z,97916.66
2023-01-27T08:48:38.182Z,97933.03
2023-01-27T08:51:06.992Z,97933.66
2023-01-27T08:53:34.356Z,97938.22
2023-01-27T08:56:05.376Z,97931.47
2023-01-27T08:58:33.657Z,97923.22
2023-01-27T09:01:02.492Z,97926.53
2023-01-27T09:03:32.659Z,97931.44
2023-01-27T09:05:59.777Z,97925.09
2023-01-27T09:08:26.775Z,97917.97
2023-01-27T09:10:53.665Z,97939.69
2023-01-27T09:13:22.339Z,97927.97
2023-01-27T09:15:52.175Z,97940.06
2023-01-27T09:18:18.849Z,97943.84
2023-01-27T09:20:45.355Z,97952.88
2023-01-27T09:23:11.997Z,97941.94
2023-01-27T09:25:38.724Z,97947.16
2023-01-27T09:28:05.190Z,97952.16
2023-01-27T09:30:32.087Z,97958.00
2023-01-27T09:33:00.596Z,97958.00
2023-01-27T09:35:36.642Z,97981.31
2023-01-27T09:38:06.263Z,97970.84
2023-01-27T09:40:58.193Z,97971.94
2023-01-27T09:43:50.751Z,97957.78
2023-01-27T09:46:51.173Z,97975.91
2023-01-27T09:49:36.407Z,97966.09
2023-01-27T09:52:08.735Z,97967.38
2023-01-27T09:54:42.080Z,97986.94
2023-01-27T09:57:21.024Z,97977.56
2023-01-27T09:59:53.260Z,97979.44
2023-01-27T10:02:59.205Z,97977.97
2023-01-27T10:05:54.783Z,97973.22
2023-01-27T10:08:45.630Z,97981.50
2023-01-27T10:11:41.354Z,98009.47
2023-01-27T10:14:20.162Z,97999.38
2023-01-27T10:17:00.699Z,98003.00
2023-01-27T10:20:04.713Z,98000.69
2023-01-27T10:22:59.374Z,98006.75
2023-01-27T10:25:43.763Z,98015.50
2023-01-27T10:28:15.658Z,98001.91
2023-01-27T10:30:50.075Z,98007.13
2023-01-27T10:33:21.524Z,98017.06
2023-01-27T10:35:52.483Z,98024.66
2023-01-27T10:38:41.558Z,98038.06
2023-01-27T10:41:10.800Z,98033.63
2023-01-27T10:43:45.997Z,98030.69
2023-01-27T10:46:25.281Z,98035.78
2023-01-27T10:49:30.438Z,98026.06
2023-01-27T10:52:09.329Z,98035.34
2023-01-27T10:54:53.942Z,98054.25
2023-01-27T10:57:37.599Z,98053.19
2023-01-27T11:03:21.709Z,98034.72
2023-01-27T11:05:53.693Z,98065.91
2023-01-27T11:08:25.839Z,98057.56
2023-01-27T11:11:13.732Z,98042.75
2023-01-27T11:13:41.039Z,98038.34
2023-01-27T11:16:15.593Z,98042.50
2023-01-27T11:18:46.506Z,98060.72
2023-01-27T11:21:19.926Z,98058.94
2023-01-27T11:23:55.425Z,98066.13
2023-01-27T11:26:48.727Z,98058.59
2023-01-27T11:29:36.412Z,98055.63
2023-01-27T11:32:27.808Z,98041.25
2023-01-27T11:35:12.881Z,98046.47
2023-01-27T11:37:42.995Z,98045.84
2023-01-27T11:40:30.157Z,98064.44
2023-01-27T11:43:00.967Z,98062.13
2023-01-27T11:45:30.804Z,98069.25
2023-01-27T11:48:00.379Z,98053.03
2023-01-27T11:50:32.495Z,98071.13
2023-01-27T11:53:18.429Z,98073.00
2023-01-27T11:55:53.004Z,98055.88
2023-01-27T11:58:25.556Z,98044.75
2023-01-27T12:00:57.359Z,98047.06
2023-01-27T12:03:52.917Z,98038.25
2023-01-27T12:06:46.713Z,98049.56
2023-01-27T12:09:33.102Z,98040.16
2023-01-27T12:12:14.959Z,98058.53
2023-01-27T12:14:59.234Z,98059.91
2023-01-27T12:17:31.476Z,98064.00
2023-01-27T12:20:04.002Z,98067.13
2023-01-27T12:22:40.283Z,98063.75
2023-01-27T12:25:16.603Z,98084.25
2023-01-27T12:27:52.509Z,98061.56
2023-01-27T12:30:24.745Z,98073.75
2023-01-27T12:32:51.958Z,98062.03
2023-01-27T12:35:23.640Z,98085.69
2023-01-27T12:37:57.304Z,98077.44
2023-01-27T12:40:25.934Z,98065.22
2023-01-27T12:43:01.632Z,98080.66
2023-01-27T12:45:38.191Z,98064.34
2023-01-27T12:48:07.630Z,98066.59
2023-01-27T12:50:36.207Z,98065.25
2023-01-27T12:53:12.943Z,98066.94
2023-01-27T12:56:08.099Z,98067.25
2023-01-27T12:58:38.792Z,98062.31
2023-01-27T13:01:20.430Z,98062.38
2023-01-27T13:03:53.716Z,98068.50
2023-01-27T13:06:25.509Z,98057.94
2023-01-27T13:08:53.531Z,98082.97
2023-01-27T13:11:32.844Z,98093.31
2023-01-27T13:13:59.370Z,98081.56
2023-01-27T13:16:30.359Z,98091.97
2023-01-27T13:18:59.674Z,98103.66
2023-01-27T13:21:38.502Z,98109.03
2023-01-27T13:24:15.127Z,98097.09
2023-01-27T13:26:42.065Z,98085.78
2023-01-27T13:29:08.539Z,98096.56
2023-01-27T13:31:44.374Z,98092.25
2023-01-27T13:34:10.890Z,98097.28
2023-01-27T13:37:16.409Z,98098.31
2023-01-27T13:40:02.966Z,98083.47
2023-01-27T13:42:44.908Z,98087.06
2023-01-27T13:45:22.640Z,98089.03
2023-01-27T13:48:16.477Z,98083.53
2023-01-27T13:50:46.779Z,98090.94
2023-01-27T13:53:17.798Z,98078.38
2023-01-27T13:55:58.028Z,98077.47
2023-01-27T13:58:39.423Z,98086.34
2023-01-27T14:01:24.156Z,98097.00
2023-01-27T14:04:20.345Z,98094.31
2023-01-27T14:07:17.346Z,98085.94
2023-01-27T14:10:13.823Z,98082.59
2023-01-27T14:12:52.669Z,98081.69
2023-01-27T14:15:43.430Z,98079.03
2023-01-27T14:18:29.274Z,98081.47
2023-01-27T14:21:13.186Z,98083.75
2023-01-27T14:23:52.186Z,98092.78
2023-01-27T14:26:44.033Z,98092.56
2023-01-27T14:29:27.230Z,98105.72
2023-01-27T14:32:06.329Z,98102.72
2023-01-27T14:34:47.396Z,98103.41
2023-01-27T14:37:22.185Z,98103.91
2023-01-27T14:40:09.917Z,98100.41
2023-01-27T14:42:55.925Z,98091.31
2023-01-27T14:45:34.801Z,98111.66
2023-01-27T14:48:39.061Z,98103.97
2023-01-27T14:51:13.021Z,98090.94
2023-01-27T14:53:42.340Z,98092.00
2023-01-27T14:56:21.068Z,98104.63
2023-01-27T14:59:09.643Z,98099.84
2023-01-27T15:01:53.090Z,98094.53
2023-01-27T15:04:35.647Z,98101.72
2023-01-27T15:07:16.293Z,98101.44
2023-01-27T15:09:55.366Z,98087.06
2023-01-27T15:13:02.779Z,98091.38
2023-01-27T15:16:02.019Z,98086.84
2023-01-27T15:18:48.197Z,98092.97
2023-01-27T15:21:45.729Z,98091.28
2023-01-27T15:24:18.218Z,98086.28
2023-01-27T15:26:47.706Z,98085.97
2023-01-27T15:29:17.911Z,98085.13
2023-01-27T15:32:25.161Z,98075.69
2023-01-27T15:34:53.937Z,98075.69
2023-01-27T15:37:23.746Z,98081.34
2023-01-27T15:40:11.368Z,98075.69
2023-01-27T15:43:02.482Z,98090.78
2023-01-27T15:45:36.279Z,98090.56
2023-01-27T15:48:10.988Z,98089.53
2023-01-27T15:50:45.642Z,98085.53
2023-01-27T15:53:15.776Z,98087.53
2023-01-27T15:55:52.546Z,98099.75
2023-01-27T15:58:36.303Z,98097.34
2023-01-27T16:01:05.650Z,98108.84
2023-01-27T16:03:38.001Z,98107.78
2023-01-27T16:06:14.931Z,98106.72
2023-01-27T16:08:57.814Z,98102.56
2023-01-27T16:11:30.695Z,98103.69
2023-01-27T16:14:12.407Z,98107.91
2023-01-27T16:16:40.364Z,98107.66
2023-01-27T16:19:11.417Z,98112.84
2023-01-27T16:21:49.551Z,98113.75
2023-01-27T16:24:25.157Z,98122.97
2023-01-27T16:27:17.182Z,98117.50
2023-01-27T16:30:27.805Z,98116.59
2023-01-27T16:33:13.352Z,98116.72
2023-01-27T16:35:59.433Z,98113.59
2023-01-27T16:38:32.461Z,98114.44
2023-01-27T16:41:03.838Z,98117.66
2023-01-27T16:44:02.673Z,98112.97
2023-01-27T16:46:38.175Z,98109.19
2023-01-27T16:49:16.285Z,98102.31
2023-01-27T16:51:44.792Z,98104.41
2023-01-27T16:54:31.634Z,98101.88
2023-01-27T16:57:05.058Z,98102.31
2023-01-27T16:59:33.643Z,98106.91
2023-01-27T17:02:12.806Z,98106.81
2023-01-27T17:04:39.704Z,98099.25
2023-01-27T17:07:12.062Z,98110.88
2023-01-27T17:09:51.948Z,98101.06
2023-01-27T17:12:33.461Z,98101.16
2023-01-27T17:15:10.312Z,98082.25
2023-01-27T17:17:40.844Z,98094.31
2023-01-27T17:20:20.084Z,98085.50
2023-01-27T17:22:52.998Z,98090.66
2023-01-27T17:25:25.671Z,98092.25
2023-01-27T17:27:52.414Z,98089.13
2023-01-27T17:30:26.260Z,98084.69
2023-01-27T17:32:58.982Z,98105.44
2023-01-27T17:35:28.958Z,98110.25
2023-01-27T17:38:14.591Z,98105.13
2023-01-27T17:40:44.827Z,98103.78
2023-01-27T17:43:32.531Z,98094.56
2023-01-27T17:46:05.214Z,98099.25
2023-01-27T17:48:40.881Z,98099.00
2023-01-27T17:51:21.051Z,98103.53
2023-01-27T17:53:49.611Z,98085.22
2023-01-27T17:56:23.176Z,98094.03
2023-01-27T17:58:52.910Z,98093.28
2023-01-27T18:01:20.960Z,98091.28
2023-01-27T18:03:53.811Z,98098.41
2023-01-27T18:06:30.019Z,98090.16
2023-01-27T18:09:01.396Z,98081.25
2023-01-27T18:11:31.943Z,98100.59
2023-01-27T18:14:09.891Z,98107.66
2023-01-27T18:16:36.673Z,98091.38
2023-01-27T18:19:21.228Z,98094.91
2023-01-27T18:21:48.232Z,98102.44
2023-01-27T18:24:26.013Z,98100.97
2023-01-27T18:26:52.844Z,98100.13
2023-01-27T18:29:25.045Z,98114.72
2023-01-27T18:31:58.166Z,98113.44
2023-01-27T18:34:28.501Z,98121.28
2023-01-27T18:36:57.997Z,98136.22
2023-01-27T18:39:41.492Z,98138.97
2023-01-27T18:42:16.426Z,98148.22
2023-01-27T18:44:43.394Z,98166.31
2023-01-27T18:47:18.663Z,98176.00
2023-01-27T18:49:51.723Z,98178.84
2023-01-27T18:52:19.099Z,98195.94
2023-01-27T18:54:46.171Z,98200.75
2023-01-27T18:57:12.762Z,98213.72
2023-01-27T18:59:39.370Z,98218.22
2023-01-27T19:02:14.447Z,98228.44
2023-01-27T19:04:41.056Z,98237.19
2023-01-27T19:07:16.003Z,98248.34
2023-01-27T19:09:44.360Z,98253.38
2023-01-27T19:12:11.672Z,98256.06
2023-01-27T19:14:39.499Z,98259.00
2023-01-27T19:17:15.459Z,98271.13
2023-01-27T19:19:43.476Z,98262.34
2023-01-27T19:22:15.516Z,98276.53
2023-01-27T19:24:43.614Z,98284.38
2023-01-27T19:27:12.279Z,98286.25
2023-01-27T19:29:38.866Z,98294.91
2023-01-27T19:32:06.016Z,98291.97
2023-01-27T19:34:32.708Z,98297.41
2023-01-27T19:36:59.248Z,98309.72
2023-01-27T19:39:33.228Z,98312.66
2023-01-27T19:41:59.895Z,98317.56
2023-01-27T19:44:27.404Z,98325.47
2023-01-27T19:46:55.765Z,98332.88
2023-01-27T19:49:22.439Z,98344.88
2023-01-27T19:51:49.138Z,98336.03
2023-01-27T19:54:17.171Z,98359.81
2023-01-27T19:56:44.709Z,98369.63
2023-01-27T19:59:12.601Z,98348.13
2023-01-27T20:01:39.309Z,98363.28
2023-01-27T20:04:06.065Z,98367.53
2023-01-27T20:06:38.833Z,98377.25
2023-01-27T20:09:06.175Z,98382.16
2023-01-27T20:11:32.641Z,98377.38
2023-01-27T20:14:00.585Z,98394.00
2023-01-27T20:16:27.318Z,98391.97
2023-01-27T20:18:54.128Z,98395.81
2023-01-27T20:21:21.047Z,98397.78
2023-01-27T20:23:48.184Z,98405.94
2023-01-27T20:26:20.401Z,98405.50
2023-01-27T20:28:48.911Z,98409.66
2023-01-27T20:31:22.661Z,98407.56
2023-01-27T20:33:52.894Z,98397.97
2023-01-27T20:36:22.501Z,98393.91
2023-01-27T20:38:50.360Z,98388.81
2023-01-27T20:41:20.499Z,98388.19
2023-01-27T20:43:47.532Z,98391.09
2023-01-27T20:46:17.793Z,98382.31
2023-01-27T20:48:53.575Z,98377.50
2023-01-27T20:51:20.321Z,98381.28
2023-01-27T20:53:47.085Z,98386.09
2023-01-27T20:56:16.352Z,98386.09
2023-01-27T20:58:42.939Z,98390.47
2023-01-27T21:01:12.059Z,98394.44
2023-01-27T21:03:47.470Z,98394.00
2023-01-27T21:06:15.916Z,98396.53
2023-01-27T21:08:43.692Z,98394.84
2023-01-27T21:11:13.206Z,98391.31
2023-01-27T21:13:39.985Z,98385.91
2023-01-27T21:16:07.441Z,98388.38
2023-01-27T21:18:35.225Z,98406.94
2023-01-27T21:21:04.309Z,98398.59
2023-01-27T21:23:33.092Z,98398.47
2023-01-27T21:26:05.463Z,98401.41
2023-01-27T21:28:33.955Z,98397.91
2023-01-27T21:31:16.584Z,98403.47
2023-01-27T21:33:45.888Z,98391.50
2023-01-27T21:36:12.681Z,98404.41
2023-01-27T21:38:39.923Z,98408.47
2023-01-27T21:41:13.165Z,98405.03
2023-01-27T21:43:58.612Z,98412.75
2023-01-27T21:46:25.219Z,98397.16
2023-01-27T21:48:55.080Z,98409.41
2023-01-27T21:51:21.735Z,98402.72
2023-01-27T21:53:48.749Z,98410.47
2023-01-27T21:56:15.422Z,98391.94
2023-01-27T21:58:42.040Z,98401.28
2023-01-27T22:01:10.450Z,98423.56
2023-01-27T22:03:37.961Z,98417.44
2023-01-27T22:06:07.086Z,98418.47
2023-01-27T22:08:34.765Z,98424.00
2023-01-27T22:11:11.666Z,98413.94
2023-01-27T22:13:39.511Z,98425.66
2023-01-27T22:16:07.122Z,98421.03
2023-01-27T22:18:33.801Z,98422.50
2023-01-27T22:21:03.421Z,98416.97
2023-01-27T22:23:30.099Z,98419.91
2023-01-27T22:25:57.043Z,98416.38
2023-01-27T22:28:24.327Z,98418.38
2023-01-27T22:30:51.085Z,98426.06
2023-01-27T22:33:17.998Z,98430.25
2023-01-27T22:35:44.645Z,98428.41
2023-01-27T22:38:11.316Z,98432.53
2023-01-27T22:40:38.035Z,98437.09
2023-01-27T22:43:10.126Z,98429.78
2023-01-27T22:45:40.585Z,98441.72
2023-01-27T22:48:08.886Z,98444.84
2023-01-27T22:50:36.579Z,98448.28
2023-01-27T22:53:05.344Z,98458.09
2023-01-27T22:55:32.293Z,98454.50
2023-01-27T22:57:59.165Z,98471.66
2023-01-27T23:00:25.672Z,98461.97
2023-01-27T23:02:52.182Z,98466.19
2023-01-27T23:05:18.798Z,98465.91
2023-01-27T23:07:47.525Z,98482.13
2023-01-27T23:10:14.345Z,98483.78
2023-01-27T23:12:41.957Z,98497.69
2023-01-27T23:15:09.473Z,98500.28
2023-01-27T23:17:36.463Z,98495.69
2023-01-27T23:20:03.742Z,98493.28
2023-01-27T23:22:33.231Z,98485.22
2023-01-27T23:25:00.121Z,98499.25
2023-01-27T23:27:29.003Z,98507.09
2023-01-27T23:29:55.824Z,98536.66
2023-01-27T23:32:22.581Z,98533.22
2023-01-27T23:34:49.332Z,98515.81
2023-01-27T23:37:17.226Z,98548.31
2023-01-27T23:39:49.065Z,98523.28
2023-01-27T23:42:17.123Z,98509.44
2023-01-27T23:44:43.934Z,98543.22
2023-01-27T23:47:12.681Z,98552.53
2023-01-27T23:49:40.384Z,98555.69
2023-01-27T23:52:08.507Z,98563.41
2023-01-27T23:54:35.316Z,98559.28
2023-01-27T23:57:02.107Z,98554.19
2023-01-27T23:59:30.346Z,98558.44
